Time;durP1;ratioP1;P1;durP2;ratioP2;P2;SDS_P1;SDS_P2;PMS_P1;PMS_P2;Temp;Humidity;BMP_temperature;BMP_pressure;BME280_temperature;BME280_humidity;BME280_pressure;Samples;Min_cycle;Max_cycle;Signal;HPM_P1;HPM_P2
2022/06/17 00:01:11;;;;;;;6.82;4.38;;;13.90;99.90;;;;;;5007769;28;20046;-84
2022/06/17 00:03:38;;;;;;;5.45;4.95;;;13.80;99.90;;;;;;5010484;28;20422;-84
2022/06/17 00:06:10;;;;;;;4.10;3.70;;;13.70;99.90;;;;;;5006318;28;20100;-85
2022/06/17 00:08:41;;;;;;;6.55;4.30;;;13.70;99.90;;;;;;5007554;28;20498;-85
2022/06/17 00:11:15;;;;;;;4.95;4.55;;;13.60;99.90;;;;;;5007394;28;20124;-84
2022/06/17 00:13:42;;;;;;;6.72;4.32;;;13.60;99.90;;;;;;5009367;28;20049;-84
2022/06/17 00:16:15;;;;;;;6.38;5.25;;;13.50;99.90;;;;;;5012571;28;20145;-84
2022/06/17 00:18:42;;;;;;;5.55;4.75;;;13.50;99.90;;;;;;4998837;28;20304;-84
2022/06/17 00:21:27;;;;;;;7.53;4.32;;;13.40;99.90;;;;;;4989140;28;20141;-84
2022/06/17 00:23:55;;;;;;;8.43;4.32;;;13.40;99.90;;;;;;5006473;28;20041;-84
2022/06/17 00:26:23;;;;;;;6.72;4.28;;;13.30;99.90;;;;;;5012444;28;20097;-84
2022/06/17 00:28:51;;;;;;;4.38;3.97;;;13.30;99.90;;;;;;4988725;28;20045;-84
2022/06/17 00:31:18;;;;;;;6.22;4.72;;;13.30;99.90;;;;;;5006313;28;20046;-84
2022/06/17 00:33:45;;;;;;;6.47;5.38;;;13.20;99.90;;;;;;5004960;28;20108;-84
2022/06/17 00:36:16;;;;;;;5.03;4.53;;;13.20;99.90;;;;;;5013227;28;20053;-84
2022/06/17 00:38:45;;;;;;;7.47;4.55;;;13.10;99.90;;;;;;4997836;28;20334;-84
2022/06/17 00:41:14;;;;;;;9.75;4.65;;;13.10;99.90;;;;;;5008544;28;20105;-84
2022/06/17 00:43:42;;;;;;;9.95;6.07;;;13.00;99.90;;;;;;5005671;28;20050;-84
2022/06/17 00:46:42;;;;;;;7.90;5.10;;;13.00;99.90;;;;;;4984838;28;20510;-84
2022/06/17 00:49:17;;;;;;;8.50;4.43;;;12.90;99.90;;;;;;4995825;28;20525;-84
2022/06/17 00:51:59;;;;;;;6.40;5.65;;;12.90;99.90;;;;;;5005866;28;20060;-84
2022/06/17 00:54:38;;;;;;;4.57;3.80;;;12.80;99.90;;;;;;5010841;28;20044;-84
2022/06/17 00:57:32;;;;;;;5.15;4.65;;;12.80;99.90;;;;;;5011712;28;20513;-84
2022/06/17 01:00:17;;;;;;;7.10;5.45;;;12.80;99.90;;;;;;5000482;28;20498;-84
2022/06/17 01:02:52;;;;;;;6.65;4.40;;;12.70;99.90;;;;;;5003495;28;20038;-84
2022/06/17 01:05:30;;;;;;;4.65;4.07;;;12.70;99.90;;;;;;4983085;28;20066;-84
2022/06/17 01:08:02;;;;;;;6.57;4.78;;;12.70;99.90;;;;;;5007952;28;20046;-84
2022/06/17 01:10:30;;;;;;;4.43;3.97;;;12.60;99.90;;;;;;5005370;28;20045;-84
2022/06/17 01:13:05;;;;;;;7.22;4.85;;;12.60;99.90;;;;;;5007806;28;20061;-84
2022/06/17 01:15:37;;;;;;;6.28;4.78;;;12.60;99.90;;;;;;4991254;28;20093;-84
2022/06/17 01:18:05;;;;;;;5.55;4.47;;;12.50;99.90;;;;;;5009285;28;20046;-84
2022/06/17 01:20:33;;;;;;;4.35;3.95;;;12.50;99.90;;;;;;4991284;28;20051;-84
2022/06/17 01:23:05;;;;;;;4.95;4.55;;;12.50;99.90;;;;;;5005675;28;20363;-84
2022/06/17 01:25:39;;;;;;;6.18;4.32;;;12.40;99.90;;;;;;5002274;28;20053;-84
2022/06/17 01:28:09;;;;;;;6.57;4.90;;;12.40;99.90;;;;;;4984306;28;20121;-84
2022/06/17 01:30:40;;;;;;;4.25;3.92;;;12.40;99.90;;;;;;5005165;28;20169;-84
2022/06/17 01:33:30;;;;;;;5.80;4.35;;;12.30;99.90;;;;;;5005208;28;20065;-84
2022/06/17 01:36:32;;;;;;;6.15;4.70;;;12.30;99.90;;;;;;4991940;28;20057;-84
2022/06/17 01:38:59;;;;;;;5.10;4.63;;;12.30;99.90;;;;;;4992906;28;20053;-84
2022/06/17 01:41:30;;;;;;;6.70;4.18;;;12.30;99.90;;;;;;5002808;28;20046;-84
2022/06/17 01:44:11;;;;;;;6.55;5.68;;;12.30;99.90;;;;;;5003531;28;20052;-84
2022/06/17 01:46:42;;;;;;;6.32;4.78;;;12.20;99.90;;;;;;5006509;28;20117;-84
2022/06/17 01:49:21;;;;;;;8.05;4.32;;;12.20;99.90;;;;;;4991922;28;20050;-84
2022/06/17 01:52:13;;;;;;;6.78;5.15;;;12.20;99.90;;;;;;4984812;28;20056;-84
2022/06/17 01:54:48;;;;;;;4.75;4.28;;;12.10;99.90;;;;;;4986415;28;20112;-84
2022/06/17 01:57:23;;;;;;;4.15;3.78;;;12.10;99.90;;;;;;5005949;28;20038;-84
2022/06/17 02:00:06;;;;;;;7.28;5.63;;;12.10;99.90;;;;;;4989836;28;20073;-84
2022/06/17 02:02:43;;;;;;;6.13;4.32;;;12.10;99.90;;;;;;4985567;28;20046;-84
2022/06/17 02:05:11;;;;;;;5.88;4.97;;;12.10;99.90;;;;;;5003261;28;20506;-84
2022/06/17 02:08:05;;;;;;;8.70;4.57;;;12.00;99.90;;;;;;5001512;28;20050;-84
2022/06/17 02:10:37;;;;;;;5.65;4.75;;;12.00;99.90;;;;;;4983549;28;20037;-84
2022/06/17 02:13:05;;;;;;;5.30;4.50;;;12.00;99.90;;;;;;5010015;28;20136;-84
2022/06/17 02:15:52;;;;;;;6.10;4.43;;;11.90;99.90;;;;;;5002982;28;20065;-84
2022/06/17 02:18:42;;;;;;;4.85;4.22;;;11.90;99.90;;;;;;5001483;28;20124;-84
2022/06/17 02:21:16;;;;;;;5.43;4.50;;;11.90;99.90;;;;;;5012695;28;20237;-84
2022/06/17 02:23:44;;;;;;;6.22;4.32;;;11.90;99.90;;;;;;4983253;28;20049;-84
2022/06/17 02:26:13;;;;;;;5.47;4.93;;;11.90;99.90;;;;;;5003754;28;20498;-84
2022/06/17 02:28:42;;;;;;;8.00;6.60;;;11.90;99.90;;;;;;4985102;28;20049;-84
2022/06/17 02:31:09;;;;;;;6.78;4.30;;;12.00;99.90;;;;;;5010341;28;20053;-84
2022/06/17 02:33:39;;;;;;;4.95;4.05;;;12.00;99.90;;;;;;4984760;28;21335;-83
2022/06/17 02:36:17;;;;;;;5.63;5.10;;;12.00;99.90;;;;;;4984959;28;20357;-82
2022/06/17 02:38:45;;;;;;;6.32;4.57;;;12.00;99.90;;;;;;5004055;28;20049;-82
2022/06/17 02:41:19;;;;;;;6.68;5.38;;;12.00;99.90;;;;;;5001979;28;20045;-82
2022/06/17 02:44:05;;;;;;;7.35;6.30;;;12.10;99.90;;;;;;4980780;28;20145;-82
2022/06/17 02:46:36;;;;;;;6.90;4.07;;;12.10;99.90;;;;;;5008767;28;20042;-82
2022/06/17 02:49:14;;;;;;;13.40;5.60;;;12.10;99.90;;;;;;4990100;28;20061;-82
2022/06/17 02:51:43;;;;;;;7.30;6.13;;;12.20;99.90;;;;;;5003808;28;20537;-82
2022/06/17 02:54:16;;;;;;;6.28;4.78;;;12.20;99.90;;;;;;4987365;28;20049;-82
2022/06/17 02:56:49;;;;;;;6.95;5.40;;;12.20;99.90;;;;;;4969874;28;20049;-82
2022/06/17 02:59:35;;;;;;;9.95;5.97;;;12.30;99.90;;;;;;4978165;28;20038;-82
2022/06/17 03:02:22;;;;;;;6.85;4.95;;;12.30;99.90;;;;;;5001439;28;20042;-82
2022/06/17 03:04:55;;;;;;;5.75;4.80;;;12.40;99.90;;;;;;4984300;28;20057;-82
2022/06/17 03:07:28;;;;;;;7.55;4.75;;;12.50;99.90;;;;;;5003895;28;20046;-81
2022/06/17 03:10:12;;;;;;;5.30;4.88;;;12.50;99.90;;;;;;4983574;28;20495;-81
2022/06/17 03:12:42;;;;;;;8.43;4.75;;;12.60;99.90;;;;;;4989683;28;20132;-81
2022/06/17 03:15:15;;;;;;;9.40;5.53;;;12.60;99.90;;;;;;4987015;28;20065;-81
2022/06/17 03:17:45;;;;;;;6.35;5.75;;;12.70;99.90;;;;;;5000917;28;20038;-81
2022/06/17 03:20:25;;;;;;;10.43;5.88;;;12.80;99.90;;;;;;5006929;28;20466;-81
2022/06/17 03:23:00;;;;;;;5.90;5.30;;;12.80;99.90;;;;;;5002265;28;20046;-81
2022/06/17 03:25:42;;;;;;;7.18;5.70;;;12.90;99.90;;;;;;4990769;28;20077;-81
2022/06/17 03:28:13;;;;;;;9.15;6.65;;;13.00;99.90;;;;;;4987606;28;20040;-81
2022/06/17 03:30:52;;;;;;;10.05;6.03;;;13.10;99.90;;;;;;4987462;28;20421;-81
2022/06/17 03:33:47;;;;;;;9.05;5.88;;;13.20;99.90;;;;;;5014757;28;20058;-81
2022/06/17 03:36:31;;;;;;;9.23;7.35;;;13.30;99.90;;;;;;4987097;28;20057;-81
2022/06/17 03:39:01;;;;;;;9.18;7.47;;;13.50;99.90;;;;;;5008592;28;20062;-81
2022/06/17 03:41:50;;;;;;;8.57;6.60;;;13.70;99.90;;;;;;4998970;28;20471;-81
2022/06/17 03:44:21;;;;;;;10.32;7.97;;;13.80;99.90;;;;;;4985528;28;20152;-81
2022/06/17 03:46:58;;;;;;;11.52;9.02;;;13.90;99.90;;;;;;5007579;28;20069;-81
2022/06/17 03:49:34;;;;;;;11.95;8.63;;;14.00;99.90;;;;;;4985437;28;20128;-81
2022/06/17 03:52:10;;;;;;;8.43;7.55;;;14.10;99.90;;;;;;4983835;28;20072;-81
2022/06/17 03:54:38;;;;;;;7.68;7.03;;;14.20;99.90;;;;;;5004310;28;20046;-81
2022/06/17 03:57:09;;;;;;;10.50;8.25;;;14.30;99.90;;;;;;4987663;28;20411;-81
2022/06/17 03:59:40;;;;;;;10.80;8.63;;;14.40;99.90;;;;;;5003232;28;20037;-81
2022/06/17 04:02:13;;;;;;;9.80;8.43;;;14.40;99.90;;;;;;5004162;28;20051;-81
2022/06/17 04:04:44;;;;;;;17.20;8.82;;;14.50;99.90;;;;;;4991731;28;20057;-81
2022/06/17 04:07:12;;;;;;;7.28;5.82;;;14.60;99.90;;;;;;5007282;28;20058;-81
2022/06/17 04:09:45;;;;;;;10.73;6.70;;;14.60;99.90;;;;;;5003624;28;20085;-81
2022/06/17 04:12:19;;;;;;;6.22;5.30;;;14.70;99.90;;;;;;5009848;28;20456;-81
2022/06/17 04:15:33;;;;;;;5.47;5.03;;;14.70;99.90;;;;;;4991372;28;20076;-81
2022/06/17 04:18:01;;;;;;;6.40;4.88;;;14.80;99.90;;;;;;5006434;28;20069;-81
2022/06/17 04:20:58;;;;;;;5.53;4.50;;;14.80;99.90;;;;;;4990126;28;20042;-81
2022/06/17 04:23:31;;;;;;;8.82;5.07;;;14.90;99.90;;;;;;4974276;28;20590;-81
2022/06/17 04:26:34;;;;;;;5.80;4.60;;;14.90;99.90;;;;;;5013728;28;20077;-81
2022/06/17 04:29:19;;;;;;;7.07;4.20;;;14.90;99.90;;;;;;4989273;28;20050;-81
2022/06/17 04:31:58;;;;;;;5.60;4.53;;;15.00;99.90;;;;;;4979048;28;20049;-80
2022/06/17 04:34:25;;;;;;;4.95;3.90;;;15.10;99.90;;;;;;5008219;28;20050;-81
2022/06/17 04:37:00;;;;;;;4.90;2.80;;;15.10;99.90;;;;;;5000639;28;20058;-81
2022/06/17 04:39:45;;;;;;;4.15;3.75;;;15.10;99.90;;;;;;4989750;28;20118;-81
2022/06/17 04:42:40;;;;;;;3.58;3.28;;;15.20;99.90;;;;;;4987492;28;20141;-81
2022/06/17 04:45:19;;;;;;;4.38;3.40;;;15.20;99.90;;;;;;4990309;28;20129;-81
2022/06/17 04:47:48;;;;;;;4.18;3.47;;;15.30;99.90;;;;;;5004211;28;20080;-81
2022/06/17 04:50:22;;;;;;;3.58;2.92;;;15.30;99.90;;;;;;4989239;28;20072;-81
2022/06/17 04:52:54;;;;;;;6.30;2.63;;;15.30;99.90;;;;;;5008805;28;20057;-81
2022/06/17 04:55:38;;;;;;;11.25;3.17;;;15.40;99.90;;;;;;5006465;28;20128;-81
2022/06/17 04:58:21;;;;;;;4.32;2.70;;;15.40;99.90;;;;;;4978033;28;20081;-81
2022/06/17 05:00:56;;;;;;;3.63;3.33;;;15.50;99.90;;;;;;4998375;28;20058;-81
2022/06/17 05:03:43;;;;;;;3.33;2.47;;;15.50;99.90;;;;;;5004045;28;20054;-80
2022/06/17 05:06:24;;;;;;;4.25;3.35;;;15.60;99.90;;;;;;5006393;28;20470;-81
2022/06/17 05:09:00;;;;;;;2.72;2.35;;;15.60;99.90;;;;;;5008502;28;20137;-81
2022/06/17 05:11:39;;;;;;;3.03;2.28;;;15.70;99.90;;;;;;4990465;28;20140;-81
2022/06/17 05:14:16;;;;;;;7.05;2.13;;;15.70;99.90;;;;;;5003805;28;20056;-81
2022/06/17 05:16:43;;;;;;;9.05;3.13;;;15.70;99.90;;;;;;4986998;28;20101;-81
2022/06/17 05:19:10;;;;;;;2.53;2.38;;;15.70;99.90;;;;;;4989041;28;20046;-81
2022/06/17 05:21:37;;;;;;;3.22;2.13;;;15.80;99.90;;;;;;5007075;28;20502;-80
2022/06/17 05:24:18;;;;;;;;;;;15.80;99.90;;;;;;5003758;28;20142;-80
2022/06/17 05:26:45;;;;;;;4.68;2.63;;;15.90;99.90;;;;;;4990975;28;19925;-80
2022/06/17 05:29:13;;;;;;;3.08;2.70;;;15.90;99.90;;;;;;4990865;28;20042;-81
2022/06/17 05:31:49;;;;;;;7.10;2.95;;;15.90;99.90;;;;;;5004277;28;20081;-81
2022/06/17 05:34:18;;;;;;;2.80;2.50;;;16.00;99.90;;;;;;4988917;28;20570;-81
2022/06/17 05:36:46;;;;;;;6.82;2.65;;;16.00;99.90;;;;;;5009228;28;20061;-81
2022/06/17 05:39:13;;;;;;;2.25;2.10;;;16.00;99.90;;;;;;4988793;28;20054;-81
2022/06/17 05:41:40;;;;;;;7.15;2.90;;;16.00;99.90;;;;;;4995712;28;20042;-81
2022/06/17 05:44:07;;;;;;;4.38;2.53;;;16.10;99.90;;;;;;5007902;28;20137;-81
2022/06/17 05:46:43;;;;;;;3.63;2.47;;;16.10;99.90;;;;;;4989433;28;20132;-81
2022/06/17 05:49:29;;;;;;;6.32;2.67;;;16.20;99.90;;;;;;4998019;28;20133;-81
2022/06/17 05:52:14;;;;;;;4.88;3.20;;;16.20;99.90;;;;;;4989898;28;20069;-81
2022/06/17 05:54:49;;;;;;;4.40;2.95;;;16.20;99.90;;;;;;4996650;28;20042;-81
2022/06/17 05:57:17;;;;;;;4.25;2.88;;;16.20;99.90;;;;;;5007555;28;20088;-81
2022/06/17 05:59:44;;;;;;;4.25;3.05;;;16.30;99.90;;;;;;4970518;28;20184;-81
2022/06/17 06:02:14;;;;;;;3.35;2.70;;;16.20;99.90;;;;;;5006512;28;20589;-81
2022/06/17 06:05:00;;;;;;;4.63;3.22;;;16.30;99.90;;;;;;5006085;28;20073;-81
2022/06/17 06:07:30;;;;;;;7.60;3.15;;;16.30;99.90;;;;;;4972878;28;20069;-81
2022/06/17 06:09:58;;;;;;;5.40;2.97;;;16.30;99.90;;;;;;4985625;28;20116;-81
2022/06/17 06:12:53;;;;;;;3.45;2.90;;;16.40;99.90;;;;;;5005124;28;20050;-81
2022/06/17 06:15:18;;;;;;;3.35;3.05;;;16.40;99.90;;;;;;5006933;28;20061;-81
2022/06/17 06:18:45;;;;;;;6.78;2.88;;;16.40;99.90;;;;;;5005296;28;20050;-81
2022/06/17 06:21:16;;;;;;;3.08;2.35;;;16.50;99.90;;;;;;4993174;28;20057;-81
2022/06/17 06:23:44;;;;;;;4.88;2.42;;;16.50;99.90;;;;;;4969736;28;20049;-81
2022/06/17 06:26:18;;;;;;;3.63;2.50;;;16.60;99.90;;;;;;4975487;28;20068;-81
2022/06/17 06:28:50;;;;;;;2.83;2.55;;;16.50;99.90;;;;;;4995343;28;20075;-81
2022/06/17 06:31:27;;;;;;;4.53;2.85;;;16.50;99.90;;;;;;4974016;28;20058;-81
2022/06/17 06:33:55;;;;;;;2.55;2.13;;;16.60;99.90;;;;;;5003271;28;20054;-81
2022/06/17 06:36:26;;;;;;;3.70;2.42;;;16.70;99.90;;;;;;4994402;28;20149;-81
2022/06/17 06:38:53;;;;;;;5.30;3.13;;;16.70;99.90;;;;;;4973945;28;20424;-81
2022/06/17 06:41:21;;;;;;;2.80;2.60;;;16.70;99.90;;;;;;4989020;28;20132;-81
2022/06/17 06:43:49;;;;;;;4.93;2.15;;;16.80;99.90;;;;;;4969244;28;20136;-81
2022/06/17 06:46:24;;;;;;;5.97;3.00;;;16.70;99.90;;;;;;4997199;28;20632;-80
2022/06/17 06:48:56;;;;;;;2.70;2.47;;;16.80;99.90;;;;;;4966858;28;20057;-80
2022/06/17 06:51:23;;;;;;;4.15;2.35;;;16.90;99.90;;;;;;4985433;28;20057;-80
2022/06/17 06:53:53;;;;;;;2.78;1.70;;;16.90;99.90;;;;;;4966969;28;20270;-80
2022/06/17 06:56:21;;;;;;;6.22;2.67;;;16.90;99.90;;;;;;4969444;28;20047;-81
2022/06/17 06:58:49;;;;;;;4.07;2.03;;;17.00;99.90;;;;;;4966548;28;20050;-80
2022/06/17 07:01:17;;;;;;;3.83;2.03;;;17.00;99.90;;;;;;4987086;28;20624;-80
2022/06/17 07:03:44;;;;;;;4.53;2.40;;;17.00;99.90;;;;;;4987429;28;20137;-81
2022/06/17 07:06:14;;;;;;;2.13;1.95;;;17.00;99.90;;;;;;4985761;28;20039;-81
2022/06/17 07:08:41;;;;;;;2.25;2.05;;;17.00;99.90;;;;;;4982716;28;20662;-81
2022/06/17 07:11:08;;;;;;;3.92;2.53;;;17.10;99.90;;;;;;4972620;28;20073;-81
2022/06/17 07:13:41;;;;;;;3.65;2.40;;;17.10;99.90;;;;;;4974473;28;20051;-80
2022/06/17 07:16:11;;;;;;;7.22;2.47;;;17.10;99.90;;;;;;4983179;28;20160;-81
2022/06/17 07:18:38;;;;;;;3.78;2.00;;;17.10;99.90;;;;;;4986096;28;20053;-81
2022/06/17 07:21:10;;;;;;;3.58;2.40;;;17.20;99.90;;;;;;4952053;28;20043;-82
2022/06/17 07:23:39;;;;;;;4.15;2.95;;;17.20;99.90;;;;;;4989860;28;20046;-81
2022/06/17 07:26:22;;;;;;;2.55;2.35;;;17.20;99.90;;;;;;4969506;28;20141;-81
2022/06/17 07:28:52;;;;;;;4.32;2.47;;;17.20;99.90;;;;;;4986567;28;20061;-82
2022/06/17 07:31:21;;;;;;;3.25;2.88;;;17.20;99.90;;;;;;4985242;28;20042;-81
2022/06/17 07:33:48;;;;;;;2.90;2.20;;;17.30;99.90;;;;;;4984444;28;20050;-81
2022/06/17 07:41:52;;;;;;;3.53;2.83;;;17.30;99.90;;;;;;5001008;28;20620;-80
2022/06/17 07:44:19;;;;;;;3.53;2.65;;;17.30;99.90;;;;;;5007468;28;20435;-81
2022/06/17 07:46:47;;;;;;;3.08;2.88;;;17.30;99.90;;;;;;5003953;28;20309;-81
2022/06/17 07:49:14;;;;;;;4.97;3.00;;;17.40;99.90;;;;;;4986062;28;20395;-81
2022/06/17 07:51:41;;;;;;;3.00;2.60;;;17.40;99.90;;;;;;5002956;28;20057;-81
2022/06/17 07:54:08;;;;;;;4.15;2.72;;;17.40;99.90;;;;;;5003359;28;20042;-80
2022/06/17 07:56:38;;;;;;;3.38;3.08;;;17.30;99.90;;;;;;5000165;28;20499;-81
2022/06/17 07:59:05;;;;;;;3.88;2.90;;;17.30;99.90;;;;;;5003240;28;20526;-81
2022/06/17 08:01:32;;;;;;;4.20;3.45;;;17.30;99.90;;;;;;5004309;28;20464;-81
2022/06/17 08:03:59;;;;;;;4.15;3.15;;;17.30;99.90;;;;;;5002145;28;20044;-81
2022/06/17 08:06:27;;;;;;;2.45;2.30;;;17.20;99.90;;;;;;4981114;28;20141;-81
2022/06/17 08:08:55;;;;;;;4.72;3.15;;;17.30;99.90;;;;;;5003247;28;20061;-81
2022/06/17 08:11:22;;;;;;;3.17;2.72;;;17.50;99.90;;;;;;4985515;28;20092;-81
2022/06/17 08:13:49;;;;;;;6.60;3.65;;;17.50;99.90;;;;;;4987693;28;20141;-81
2022/06/17 08:16:16;;;;;;;3.75;3.45;;;17.50;99.90;;;;;;5007840;28;20096;-81
2022/06/17 08:18:44;;;;;;;4.18;3.38;;;17.50;99.90;;;;;;5007700;28;20046;-80
2022/06/17 08:21:12;;;;;;;5.10;3.63;;;17.30;99.90;;;;;;4988643;28;20073;-81
2022/06/17 08:23:39;;;;;;;4.13;3.53;;;17.40;99.90;;;;;;5004807;28;20448;-80
2022/06/17 08:26:06;;;;;;;4.22;3.28;;;17.50;99.90;;;;;;5009210;28;20041;-81
2022/06/17 08:28:33;;;;;;;4.63;4.22;;;17.50;99.90;;;;;;5007171;28;20365;-81
2022/06/17 08:31:00;;;;;;;4.65;3.67;;;17.50;99.90;;;;;;5009801;28;20054;-81
2022/06/17 08:33:31;;;;;;;4.88;3.28;;;17.70;99.90;;;;;;5013191;28;20446;-81
2022/06/17 08:36:15;;;;;;;3.42;3.13;;;17.50;99.90;;;;;;5000863;28;20042;-81
2022/06/17 08:38:52;;;;;;;4.50;2.80;;;17.70;99.90;;;;;;5006997;28;20573;-81
2022/06/17 08:41:32;;;;;;;4.00;3.70;;;17.90;99.90;;;;;;5006699;28;20522;-80
2022/06/17 08:44:11;;;;;;;3.83;3.50;;;17.90;99.90;;;;;;4999699;28;20134;-80
2022/06/17 08:47:12;;;;;;;2.92;2.72;;;18.00;99.90;;;;;;5004526;28;20046;-80
2022/06/17 08:50:11;;;;;;;2.90;2.70;;;18.10;99.90;;;;;;4992798;28;20042;-81
2022/06/17 08:52:47;;;;;;;3.65;3.35;;;18.20;99.90;;;;;;5000199;28;20057;-81
2022/06/17 08:55:19;;;;;;;3.50;3.20;;;18.20;99.90;;;;;;5005457;28;20115;-81
2022/06/17 08:58:18;;;;;;;3.33;3.10;;;18.00;99.90;;;;;;5003389;28;20514;-81
2022/06/17 09:00:51;;;;;;;2.97;2.72;;;17.90;99.90;;;;;;4975146;28;20058;-81
2022/06/17 09:03:39;;;;;;;3.25;3.05;;;18.00;99.90;;;;;;5008637;28;20044;-80
2022/06/17 09:06:38;;;;;;;3.33;2.80;;;18.10;99.90;;;;;;5002851;28;20093;-81
2022/06/17 09:09:51;;;;;;;3.85;3.55;;;18.20;99.90;;;;;;4957704;28;20054;-81
2022/06/17 09:12:33;;;;;;;3.92;3.63;;;18.30;99.90;;;;;;5005334;28;20050;-81
2022/06/17 09:15:29;;;;;;;2.83;2.63;;;18.30;99.90;;;;;;5004294;28;20046;-81
2022/06/17 09:18:02;;;;;;;3.72;3.42;;;18.30;99.90;;;;;;5004647;28;21729;-80
2022/06/17 09:20:38;;;;;;;2.88;2.67;;;18.40;99.90;;;;;;4990698;28;20502;-81
2022/06/17 09:23:15;;;;;;;3.17;2.28;;;18.30;99.90;;;;;;5004927;28;20509;-81
2022/06/17 09:25:44;;;;;;;4.30;2.65;;;18.20;99.90;;;;;;5003807;28;20073;-81
2022/06/17 09:28:18;;;;;;;2.75;2.55;;;18.30;99.90;;;;;;5006292;28;20096;-81
2022/06/17 09:30:56;;;;;;;3.80;2.97;;;18.40;99.90;;;;;;5005840;28;20042;-81
2022/06/17 09:33:49;;;;;;;3.28;2.92;;;18.60;99.90;;;;;;5001331;28;20438;-81
2022/06/17 09:36:28;;;;;;;3.45;3.00;;;18.60;99.90;;;;;;5003231;28;20061;-81
2022/06/17 09:39:07;;;;;;;3.60;3.30;;;18.40;99.90;;;;;;4987507;28;20073;-81
2022/06/17 09:42:02;;;;;;;4.43;3.08;;;18.60;99.90;;;;;;5005487;28;20045;-81
2022/06/17 09:44:37;;;;;;;3.17;2.95;;;18.70;99.90;;;;;;4986905;28;20038;-81
2022/06/17 09:47:31;;;;;;;3.47;2.13;;;18.30;99.90;;;;;;5006622;28;20061;-81
2022/06/17 09:50:04;;;;;;;3.97;3.55;;;18.20;99.90;;;;;;5001132;28;20041;-81
2022/06/17 09:52:45;;;;;;;3.28;2.97;;;18.50;99.90;;;;;;5005217;28;20041;-81
2022/06/17 09:55:21;;;;;;;3.65;3.35;;;18.70;99.90;;;;;;5005861;28;20057;-81
2022/06/17 09:58:13;;;;;;;3.83;3.53;;;18.50;99.90;;;;;;5002982;28;20053;-82
2022/06/17 10:00:52;;;;;;;4.60;4.15;;;18.30;99.90;;;;;;5004241;28;20050;-81
2022/06/17 10:03:32;;;;;;;2.90;2.70;;;18.30;99.90;;;;;;4980605;28;20537;-81
2022/06/17 10:06:23;;;;;;;2.92;2.72;;;18.40;99.90;;;;;;5001314;28;20050;-81
2022/06/17 10:09:34;;;;;;;4.35;2.97;;;18.30;99.90;;;;;;5004768;28;20049;-81
2022/06/17 10:12:01;;;;;;;3.47;2.78;;;18.40;99.90;;;;;;4904968;29;20052;-80
2022/06/17 10:14:48;;;;;;;5.35;3.33;;;18.70;99.90;;;;;;4991809;28;20042;-81
2022/06/17 10:20:51;;;;;;;3.22;2.97;;;19.10;99.90;;;;;;4998935;28;20058;-82
2022/06/17 10:23:44;;;;;;;2.77;2.57;;;19.20;99.90;;;;;;4959579;28;20124;-81
2022/06/17 10:26:48;;;;;;;6.40;3.47;;;19.20;99.90;;;;;;5004928;28;20058;-81
2022/06/17 10:29:43;;;;;;;3.45;3.15;;;19.00;99.90;;;;;;5000370;28;20379;-82
2022/06/17 10:32:10;;;;;;;3.58;2.70;;;19.20;99.90;;;;;;4993070;28;20121;-81
2022/06/17 10:34:58;;;;;;;3.38;2.35;;;19.40;99.90;;;;;;5005461;28;20133;-81
2022/06/17 10:37:32;;;;;;;3.22;2.78;;;19.10;99.90;;;;;;5001470;28;20053;-81
2022/06/17 10:40:23;;;;;;;3.50;3.30;;;19.20;99.90;;;;;;4998462;28;20073;-81
2022/06/17 10:42:54;;;;;;;3.08;2.88;;;19.20;99.90;;;;;;5003193;28;20525;-82
2022/06/17 10:45:21;;;;;;;5.95;3.00;;;19.20;99.90;;;;;;4983787;28;20479;-81
2022/06/17 10:48:03;;;;;;;2.20;1.85;;;19.30;99.90;;;;;;5002141;28;20042;-81
2022/06/17 10:50:31;;;;;;;4.03;3.33;;;19.30;99.90;;;;;;4999565;28;20100;-81
2022/06/17 10:53:02;;;;;;;4.20;2.55;;;19.30;99.90;;;;;;4997715;28;20077;-82
2022/06/17 10:55:41;;;;;;;2.80;2.30;;;19.30;99.90;;;;;;4993883;28;20053;-81
2022/06/17 10:58:24;;;;;;;3.42;2.03;;;19.40;99.90;;;;;;4991752;28;20053;-81
2022/06/17 11:01:11;;;;;;;3.13;2.20;;;19.50;99.90;;;;;;4960592;28;20050;-82
2022/06/17 11:03:48;;;;;;;6.57;3.05;;;19.70;99.90;;;;;;5002555;28;20364;-81
2022/06/17 11:06:21;;;;;;;1.77;1.67;;;19.70;99.90;;;;;;5008412;28;20049;-81
2022/06/17 11:08:48;;;;;;;5.68;3.42;;;19.90;99.90;;;;;;5003443;28;20054;-82
2022/06/17 11:14:25;;;;;;;2.03;1.88;;;19.80;99.90;;;;;;5000803;28;20042;-81
2022/06/17 11:16:52;;;;;;;2.58;2.38;;;19.90;99.90;;;;;;5008255;28;20092;-80
2022/06/17 11:19:23;;;;;;;3.15;1.80;;;19.80;99.90;;;;;;5004347;28;20050;-82
2022/06/17 11:21:54;;;;;;;1.90;1.80;;;19.60;99.90;;;;;;4982621;28;20042;-81
2022/06/17 11:24:40;;;;;;;2.25;2.05;;;19.80;99.90;;;;;;5003994;28;20478;-82
2022/06/17 11:27:17;;;;;;;3.10;2.60;;;19.90;99.90;;;;;;5002913;28;20061;-81
2022/06/17 11:29:47;;;;;;;2.67;2.47;;;19.90;99.90;;;;;;4984712;28;20053;-82
2022/06/17 11:32:20;;;;;;;2.85;1.98;;;20.10;99.90;;;;;;4986303;28;20436;-81
2022/06/17 11:34:54;;;;;;;4.15;1.80;;;20.10;99.90;;;;;;5003984;28;20053;-81
2022/06/17 11:37:24;;;;;;;2.17;1.98;;;20.10;99.90;;;;;;5005572;28;20057;-81
2022/06/17 11:40:22;;;;;;;2.10;1.90;;;20.00;99.90;;;;;;4999849;28;20042;-81
2022/06/17 11:42:52;;;;;;;2.20;1.88;;;20.20;99.90;;;;;;5003355;28;20060;-81
2022/06/17 11:45:33;;;;;;;2.60;1.95;;;20.40;99.90;;;;;;4987534;28;20109;-81
2022/06/17 11:48:18;;;;;;;1.20;1.10;;;20.60;99.90;;;;;;4986139;28;20053;-81
2022/06/17 11:51:12;;;;;;;2.38;2.15;;;20.60;99.90;;;;;;5010640;28;20034;-81
2022/06/17 11:53:48;;;;;;;2.10;1.58;;;20.80;99.90;;;;;;5006301;28;20108;-82
2022/06/17 11:56:34;;;;;;;3.47;2.10;;;20.70;99.90;;;;;;4972141;28;20050;-81
2022/06/17 11:59:13;;;;;;;2.53;1.30;;;20.90;99.90;;;;;;5010621;28;20037;-82
2022/06/17 12:01:48;;;;;;;2.28;1.48;;;21.00;99.90;;;;;;5006003;28;20042;-81
2022/06/17 12:04:39;;;;;;;1.27;1.17;;;21.00;99.90;;;;;;5008327;28;20045;-81
2022/06/17 12:07:27;;;;;;;2.22;1.50;;;20.90;99.90;;;;;;5011104;28;20373;-81
2022/06/17 12:10:05;;;;;;;1.52;1.42;;;20.70;99.90;;;;;;5005517;28;20507;-81
2022/06/17 12:12:34;;;;;;;1.77;0.90;;;20.70;99.90;;;;;;5014589;28;20060;-81
2022/06/17 12:15:03;;;;;;;1.13;1.02;;;20.90;99.90;;;;;;4989051;28;20073;-81
2022/06/17 12:17:32;;;;;;;3.10;1.08;;;21.10;99.90;;;;;;5010920;28;20404;-81
2022/06/17 12:20:01;;;;;;;2.65;1.20;;;21.20;99.90;;;;;;5005953;28;20119;-81
2022/06/17 12:22:50;;;;;;;5.10;2.08;;;21.30;99.90;;;;;;5007126;28;20054;-81
2022/06/17 12:25:35;;;;;;;2.25;1.13;;;21.20;99.90;;;;;;5007920;28;20057;-81
2022/06/17 12:28:16;;;;;;;1.88;1.10;;;21.30;99.90;;;;;;5007308;28;20050;-81
2022/06/17 12:30:51;;;;;;;;;;;21.10;99.90;;;;;;5007934;28;20049;-81
2022/06/17 12:33:49;;;;;;;0.82;0.82;;;21.30;99.90;;;;;;5014819;28;19960;-82
2022/06/17 12:36:30;;;;;;;1.13;1.02;;;21.40;99.90;;;;;;5004119;28;21244;-81
2022/06/17 12:39:15;;;;;;;1.20;1.10;;;21.40;99.90;;;;;;5007080;28;20149;-81
2022/06/17 12:41:57;;;;;;;0.75;0.73;;;21.40;99.90;;;;;;5004621;28;20034;-81
2022/06/17 12:44:27;;;;;;;1.50;1.20;;;21.60;99.90;;;;;;5006080;28;20074;-81
2022/06/17 12:47:07;;;;;;;0.50;0.50;;;21.80;99.90;;;;;;5012492;28;20690;-81
2022/06/17 12:53:19;;;;;;;0.95;0.63;;;22.10;99.90;;;;;;4987160;28;20049;-81
2022/06/17 12:56:21;;;;;;;0.30;0.30;;;22.30;99.90;;;;;;4923531;28;20052;-81
2022/06/17 12:59:07;;;;;;;0.20;0.20;;;22.50;99.90;;;;;;5010118;28;20105;-81
2022/06/17 13:01:51;;;;;;;4.97;0.68;;;22.60;99.90;;;;;;5006079;28;20211;-81
2022/06/17 13:04:29;;;;;;;0.85;0.85;;;22.50;99.90;;;;;;4990335;28;20065;-81
2022/06/17 13:07:47;;;;;;;0.30;0.30;;;22.70;99.90;;;;;;5007879;28;20058;-81
2022/06/17 13:10:39;;;;;;;1.27;1.15;;;22.80;99.90;;;;;;4945690;28;20046;-81
2022/06/17 13:13:16;;;;;;;0.70;0.52;;;23.00;99.90;;;;;;5007222;28;20045;-81
2022/06/17 13:15:49;;;;;;;0.30;0.30;;;22.90;99.90;;;;;;5014487;28;20049;-81
2022/06/17 13:18:29;;;;;;;0.40;0.40;;;22.60;98.80;;;;;;5009106;28;20033;-81
2022/06/17 13:21:02;;;;;;;;;;;22.60;99.90;;;;;;5010937;28;20115;-81
2022/06/17 13:23:32;;;;;;;1.52;1.13;;;22.50;99.90;;;;;;5009430;28;19960;-81
2022/06/17 13:26:12;;;;;;;1.30;1.10;;;22.20;99.90;;;;;;5006610;28;20407;-81
2022/06/17 13:29:02;;;;;;;1.75;1.20;;;21.80;99.90;;;;;;5005584;28;20073;-81
2022/06/17 13:31:49;;;;;;;1.50;1.05;;;21.50;99.90;;;;;;5010129;28;20461;-81
2022/06/17 13:34:25;;;;;;;1.73;1.02;;;21.50;99.90;;;;;;4983069;28;20042;-82
2022/06/17 13:37:05;;;;;;;1.20;0.93;;;21.70;99.90;;;;;;5000729;28;20061;-81
2022/06/17 13:39:37;;;;;;;1.25;1.15;;;21.90;99.90;;;;;;5002914;28;20136;-82
2022/06/17 13:42:08;;;;;;;1.20;1.08;;;22.00;99.90;;;;;;5000612;28;20125;-83
2022/06/17 13:44:51;;;;;;;1.13;1.00;;;22.20;99.90;;;;;;5002173;28;20514;-84
2022/06/17 13:47:51;;;;;;;1.88;1.63;;;22.10;99.90;;;;;;5007627;28;20096;-82
2022/06/17 13:50:36;;;;;;;1.63;1.42;;;22.00;99.90;;;;;;5001168;28;20413;-82
2022/06/17 13:53:12;;;;;;;4.70;2.40;;;22.20;99.90;;;;;;5006380;28;20042;-82